Time;durP1;ratioP1;P1;durP2;ratioP2;P2;SDS_P1;SDS_P2;PMS_P1;PMS_P2;Temp;Humidity;BMP_temperature;BMP_pressure;BME280_temperature;BME280_humidity;BME280_pressure;Samples;Min_cycle;Max_cycle;Signal;HPM_P1;HPM_P2
2023/10/31 00:00:18;;;;;;;0.10;0.10;;;12.20;99.90;;;;;;4966975;28;20528;-74
2023/10/31 00:02:44;;;;;;;0.20;0.20;;;12.20;99.60;;;;;;4964317;28;20227;-74
2023/10/31 00:05:10;;;;;;;0.20;0.20;;;12.20;99.90;;;;;;4962600;28;20197;-75
2023/10/31 00:07:35;;;;;;;0.10;0.10;;;12.20;99.60;;;;;;4961613;28;20425;-74
2023/10/31 00:10:05;;;;;;;0.13;0.13;;;12.30;99.00;;;;;;4969990;28;20546;-75
2023/10/31 00:12:30;;;;;;;0.10;0.10;;;12.30;98.20;;;;;;4969703;28;20031;-75
2023/10/31 00:14:58;;;;;;;0.15;0.15;;;12.40;98.80;;;;;;4974712;28;20042;-75
2023/10/31 00:17:28;;;;;;;0.10;0.10;;;12.20;99.90;;;;;;4976506;28;20023;-75
2023/10/31 00:19:57;;;;;;;0.10;0.10;;;12.30;99.80;;;;;;4977647;28;20494;-75
2023/10/31 00:22:33;;;;;;;0.00;0.00;;;12.30;99.90;;;;;;5008704;28;20045;-74
2023/10/31 00:24:59;;;;;;;0.10;0.10;;;12.30;99.40;;;;;;4976408;28;20311;-75
2023/10/31 00:27:25;;;;;;;0.10;0.10;;;12.40;99.30;;;;;;4969181;28;20019;-74
2023/10/31 00:29:51;;;;;;;0.20;0.20;;;12.50;98.70;;;;;;5002254;28;20035;-76
2023/10/31 00:32:17;;;;;;;0.20;0.20;;;12.50;99.30;;;;;;5003270;28;20142;-75
2023/10/31 00:34:47;;;;;;;0.10;0.10;;;12.40;99.70;;;;;;4970078;28;20058;-75
2023/10/31 00:37:13;;;;;;;0.40;0.40;;;12.40;99.70;;;;;;4966879;28;20033;-76
2023/10/31 00:39:39;;;;;;;0.10;0.10;;;12.40;99.50;;;;;;4970083;28;20023;-76
2023/10/31 00:42:05;;;;;;;0.20;0.20;;;12.20;99.60;;;;;;4968712;28;20034;-75
2023/10/31 00:44:30;;;;;;;0.10;0.10;;;12.40;99.20;;;;;;4963632;28;20023;-75
2023/10/31 00:46:56;;;;;;;0.20;0.20;;;13.90;99.20;;;;;;4963810;28;20118;-75
2023/10/31 00:49:22;;;;;;;0.10;0.10;;;12.40;99.00;;;;;;4965851;28;20320;-74
2023/10/31 00:51:48;;;;;;;0.20;0.20;;;12.50;99.20;;;;;;4961461;28;20544;-75
2023/10/31 00:54:14;;;;;;;0.10;0.10;;;12.40;99.90;;;;;;4960443;28;20027;-76
2023/10/31 00:56:39;;;;;;;0.82;0.82;;;12.50;99.40;;;;;;4960314;28;20509;-75
2023/10/31 00:59:05;;;;;;;1.20;1.20;;;12.50;98.70;;;;;;4961154;28;20019;-74
2023/10/31 01:01:31;;;;;;;0.40;0.40;;;12.60;98.20;;;;;;4960951;28;20398;-75
2023/10/31 01:03:57;;;;;;;1.90;1.75;;;12.70;99.20;;;;;;4959239;28;20700;-75
2023/10/31 01:06:23;;;;;;;0.15;0.15;;;12.70;99.70;;;;;;4959665;28;20047;-74
2023/10/31 01:08:48;;;;;;;0.20;0.20;;;12.70;99.90;;;;;;4959502;28;20025;-75
2023/10/31 01:11:14;;;;;;;1.27;1.27;;;12.70;99.50;;;;;;4960679;28;20221;-76
2023/10/31 01:13:40;;;;;;;0.20;0.20;;;12.70;99.50;;;;;;4961748;28;20101;-74
2023/10/31 01:16:06;;;;;;;0.10;0.10;;;12.70;99.60;;;;;;4960846;28;20033;-75
2023/10/31 01:18:32;;;;;;;0.20;0.20;;;12.70;99.90;;;;;;4961193;28;20023;-83
2023/10/31 01:20:57;;;;;;;0.28;0.28;;;12.60;99.90;;;;;;4959674;28;20035;-74
2023/10/31 01:23:23;;;;;;;0.20;0.20;;;12.60;99.90;;;;;;4964362;28;20160;-75
2023/10/31 01:25:49;;;;;;;0.30;0.30;;;12.60;99.90;;;;;;4970187;28;20149;-77
2023/10/31 01:28:15;;;;;;;0.10;0.10;;;12.70;99.90;;;;;;4963056;28;20628;-78
2023/10/31 01:30:40;;;;;;;0.20;0.20;;;12.70;99.90;;;;;;4962749;28;20348;-77
2023/10/31 01:33:06;;;;;;;0.17;0.17;;;12.70;99.90;;;;;;4960929;28;20026;-74
2023/10/31 01:35:32;;;;;;;0.20;0.20;;;12.70;99.90;;;;;;4959480;28;20043;-80
2023/10/31 01:37:57;;;;;;;0.17;0.17;;;12.70;99.90;;;;;;4960774;28;20137;-81
2023/10/31 01:40:23;;;;;;;0.20;0.20;;;12.80;99.90;;;;;;4961739;28;20027;-76
2023/10/31 01:42:49;;;;;;;0.10;0.10;;;12.80;99.90;;;;;;4963520;28;20385;-75
2023/10/31 01:45:15;;;;;;;0.20;0.20;;;12.90;99.90;;;;;;4963145;28;20030;-74
2023/10/31 01:47:42;;;;;;;0.20;0.20;;;12.90;99.90;;;;;;4963105;28;20025;-74
2023/10/31 01:50:09;;;;;;;0.20;0.20;;;12.90;99.90;;;;;;4962624;28;20129;-76
2023/10/31 01:52:36;;;;;;;0.20;0.20;;;13.00;99.90;;;;;;4964294;28;20343;-74
2023/10/31 01:55:03;;;;;;;0.50;0.50;;;13.00;99.90;;;;;;4967274;28;20066;-79
2023/10/31 01:57:30;;;;;;;0.13;0.13;;;13.00;99.90;;;;;;4966520;28;20085;-75
2023/10/31 01:59:55;;;;;;;0.10;0.10;;;13.00;99.90;;;;;;4966964;28;20019;-77
2023/10/31 02:02:23;;;;;;;1.75;1.70;;;13.00;99.90;;;;;;4965784;28;20038;-75
2023/10/31 02:04:50;;;;;;;0.52;0.52;;;12.90;99.90;;;;;;4963373;28;20726;-74
2023/10/31 02:07:16;;;;;;;0.10;0.10;;;13.10;99.90;;;;;;4964263;28;20029;-77
2023/10/31 02:09:42;;;;;;;0.20;0.20;;;13.10;99.90;;;;;;4963494;28;20023;-74
2023/10/31 02:12:08;;;;;;;0.20;0.20;;;13.20;99.90;;;;;;4962597;28;20038;-75
2023/10/31 02:14:33;;;;;;;0.20;0.20;;;13.20;99.90;;;;;;4962248;28;20027;-74
2023/10/31 02:16:59;;;;;;;0.20;0.20;;;13.40;99.90;;;;;;4962320;28;20027;-75
2023/10/31 02:19:25;;;;;;;0.10;0.10;;;13.50;99.70;;;;;;4962182;28;20015;-79
2023/10/31 02:21:51;;;;;;;0.17;0.17;;;13.50;99.60;;;;;;4962029;28;20370;-75
2023/10/31 02:24:16;;;;;;;0.20;0.20;;;13.50;99.40;;;;;;4961932;28;20316;-78
2023/10/31 02:26:42;;;;;;;0.20;0.20;;;13.50;99.90;;;;;;4961886;28;20634;-74
2023/10/31 02:29:08;;;;;;;0.20;0.20;;;13.40;99.90;;;;;;4961876;28;20027;-74
2023/10/31 02:31:34;;;;;;;0.20;0.20;;;13.40;99.90;;;;;;4961756;28;20390;-74
2023/10/31 02:34:00;;;;;;;0.17;0.17;;;13.40;99.90;;;;;;4961880;28;20023;-76
2023/10/31 02:36:25;;;;;;;0.10;0.10;;;13.30;99.90;;;;;;4961790;28;20039;-75
2023/10/31 02:38:51;;;;;;;0.35;0.35;;;15.50;99.90;;;;;;4961559;28;20425;-77
2023/10/31 02:41:17;;;;;;;1.65;1.58;;;13.20;99.90;;;;;;4962056;28;20097;-74
2023/10/31 02:43:43;;;;;;;0.90;0.90;;;13.20;99.90;;;;;;4962161;28;20030;-74
2023/10/31 02:46:12;;;;;;;0.43;0.43;;;13.10;99.90;;;;;;4962189;28;20027;-74
2023/10/31 02:48:41;;;;;;;0.30;0.30;;;13.20;99.90;;;;;;4961559;28;20043;-75
2023/10/31 02:51:08;;;;;;;1.80;1.73;;;13.20;99.90;;;;;;4961692;28;20050;-74
2023/10/31 02:53:34;;;;;;;0.10;0.10;;;13.10;99.90;;;;;;4961870;28;20316;-74
2023/10/31 02:56:00;;;;;;;0.20;0.20;;;13.10;99.90;;;;;;4961999;28;20030;-76
2023/10/31 02:58:26;;;;;;;0.40;0.40;;;13.10;99.90;;;;;;4961887;28;20330;-80
2023/10/31 03:00:52;;;;;;;0.20;0.20;;;13.10;99.90;;;;;;4963099;28;20355;-76
2023/10/31 03:03:18;;;;;;;1.95;1.95;;;13.10;99.90;;;;;;4963990;28;20295;-75
2023/10/31 03:05:43;;;;;;;1.33;1.30;;;13.00;99.90;;;;;;4963155;28;20023;-75
2023/10/31 03:08:11;;;;;;;0.20;0.20;;;13.00;99.90;;;;;;4962244;28;20081;-77
2023/10/31 03:10:39;;;;;;;0.10;0.10;;;13.30;99.50;;;;;;4961393;28;20293;-75
2023/10/31 03:13:04;;;;;;;0.20;0.20;;;13.50;99.90;;;;;;4961681;28;20019;-75
2023/10/31 03:15:31;;;;;;;0.20;0.20;;;13.60;99.90;;;;;;4961017;28;20038;-78
2023/10/31 03:17:56;;;;;;;0.20;0.20;;;13.60;99.90;;;;;;4961272;28;20381;-74
2023/10/31 03:20:22;;;;;;;0.10;0.10;;;13.90;98.30;;;;;;4961054;28;20031;-74
2023/10/31 03:22:48;;;;;;;0.10;0.10;;;14.50;96.20;;;;;;4959318;28;20057;-74
2023/10/31 03:25:14;;;;;;;0.20;0.20;;;15.30;95.00;;;;;;4960970;28;20133;-74
2023/10/31 03:27:40;;;;;;;0.20;0.20;;;15.80;93.80;;;;;;4960456;28;20232;-75
2023/10/31 03:30:06;;;;;;;0.20;0.20;;;16.10;93.00;;;;;;4960502;28;20224;-74
2023/10/31 03:32:32;;;;;;;0.10;0.10;;;16.50;92.40;;;;;;4960665;28;20092;-75
2023/10/31 03:34:57;;;;;;;0.13;0.13;;;16.70;91.70;;;;;;4960544;28;20034;-74
2023/10/31 03:37:23;;;;;;;0.95;0.95;;;16.90;91.80;;;;;;4960655;28;20240;-74
2023/10/31 03:39:49;;;;;;;0.10;0.10;;;17.10;91.40;;;;;;4960671;28;20022;-75
2023/10/31 03:42:15;;;;;;;0.40;0.40;;;17.10;91.50;;;;;;4960699;28;20031;-75
2023/10/31 03:44:40;;;;;;;0.10;0.10;;;17.10;91.40;;;;;;4960753;28;20015;-74
2023/10/31 03:47:06;;;;;;;0.95;0.93;;;17.10;91.40;;;;;;4960597;28;20310;-74
2023/10/31 03:49:32;;;;;;;0.10;0.10;;;17.10;91.60;;;;;;4960106;28;20039;-78
2023/10/31 03:51:57;;;;;;;0.10;0.10;;;17.10;91.70;;;;;;4960347;28;20117;-74
2023/10/31 03:54:23;;;;;;;0.10;0.10;;;17.20;91.70;;;;;;4961319;28;20019;-75
2023/10/31 03:56:49;;;;;;;0.17;0.17;;;17.20;92.00;;;;;;4961914;28;20068;-78
2023/10/31 03:59:15;;;;;;;0.10;0.10;;;17.20;92.40;;;;;;4959938;28;20109;-78
2023/10/31 04:01:40;;;;;;;0.10;0.10;;;17.20;92.40;;;;;;4959498;28;20023;-84
2023/10/31 04:04:06;;;;;;;0.10;0.10;;;17.40;92.50;;;;;;4960872;28;20053;-73
2023/10/31 04:06:32;;;;;;;0.15;0.15;;;17.40;92.20;;;;;;4960532;28;20019;-74
2023/10/31 04:08:57;;;;;;;0.10;0.10;;;17.40;92.50;;;;;;4960462;28;20394;-73
2023/10/31 04:11:23;;;;;;;0.10;0.10;;;17.40;92.60;;;;;;4962309;28;20078;-77
2023/10/31 04:13:49;;;;;;;0.10;0.10;;;17.30;92.70;;;;;;4963560;28;20227;-75
2023/10/31 04:16:15;;;;;;;1.55;1.45;;;17.30;92.60;;;;;;4961537;28;20414;-73
2023/10/31 04:18:41;;;;;;;0.10;0.10;;;17.30;92.70;;;;;;4963304;28;20336;-74
2023/10/31 04:21:07;;;;;;;0.10;0.10;;;17.30;92.70;;;;;;4961741;28;20015;-75
2023/10/31 04:23:33;;;;;;;0.10;0.10;;;17.40;92.60;;;;;;4960511;28;20058;-74
2023/10/31 04:25:59;;;;;;;0.10;0.10;;;17.50;92.20;;;;;;4960018;28;20105;-75
2023/10/31 04:28:25;;;;;;;0.10;0.10;;;17.50;92.20;;;;;;4959868;28;20039;-75
2023/10/31 04:30:50;;;;;;;0.10;0.10;;;17.60;92.40;;;;;;4959704;28;20601;-75
2023/10/31 04:33:16;;;;;;;0.10;0.10;;;17.70;92.50;;;;;;4959650;28;20045;-74
2023/10/31 04:35:42;;;;;;;0.10;0.10;;;17.70;92.30;;;;;;4959404;28;20034;-74
2023/10/31 04:38:08;;;;;;;0.10;0.10;;;17.80;92.40;;;;;;4959710;28;20037;-77
2023/10/31 04:40:33;;;;;;;0.10;0.10;;;17.80;92.40;;;;;;4959553;28;20514;-76
2023/10/31 04:43:01;;;;;;;0.10;0.10;;;17.90;92.50;;;;;;4959575;28;20019;-74
2023/10/31 04:45:26;;;;;;;0.10;0.10;;;17.90;92.70;;;;;;4959496;28;20273;-75
2023/10/31 04:47:52;;;;;;;0.10;0.10;;;17.90;93.00;;;;;;4959051;28;20061;-80
2023/10/31 04:50:18;;;;;;;0.10;0.10;;;18.00;93.40;;;;;;4959143;28;20051;-74
2023/10/31 04:52:43;;;;;;;0.10;0.10;;;18.00;93.80;;;;;;4959601;28;20023;-75
2023/10/31 04:55:10;;;;;;;0.10;0.10;;;18.00;94.00;;;;;;4959840;28;20085;-75
2023/10/31 04:57:35;;;;;;;0.10;0.10;;;18.90;94.70;;;;;;4959413;28;20031;-73
2023/10/31 05:00:03;;;;;;;0.10;0.10;;;18.00;94.60;;;;;;4959154;28;20074;-72
2023/10/31 05:02:29;;;;;;;0.10;0.10;;;17.90;94.80;;;;;;4958621;28;20679;-83
2023/10/31 05:04:54;;;;;;;0.10;0.10;;;18.00;94.90;;;;;;4958943;28;20037;-78
2023/10/31 05:07:20;;;;;;;0.13;0.13;;;17.90;95.00;;;;;;4959059;28;20046;-73
2023/10/31 05:09:46;;;;;;;0.10;0.10;;;18.00;95.10;;;;;;4958992;28;20034;-76
2023/10/31 05:12:12;;;;;;;0.10;0.10;;;18.10;95.20;;;;;;4958671;28;20102;-74
2023/10/31 05:14:38;;;;;;;0.10;0.10;;;18.00;95.50;;;;;;4959280;28;20057;-77
2023/10/31 05:17:04;;;;;;;0.10;0.10;;;18.10;95.40;;;;;;4990398;28;20441;-75
2023/10/31 05:19:30;;;;;;;0.10;0.10;;;18.10;95.40;;;;;;4959732;28;20019;-89
2023/10/31 05:21:56;;;;;;;0.10;0.10;;;18.10;95.50;;;;;;4959308;28;20031;-74
2023/10/31 05:24:21;;;;;;;0.10;0.10;;;18.10;95.60;;;;;;4959799;28;20446;-74
2023/10/31 05:26:47;;;;;;;0.20;0.20;;;18.00;95.90;;;;;;4959973;28;20027;-74
2023/10/31 05:29:13;;;;;;;0.10;0.10;;;18.00;96.00;;;;;;4958847;28;20022;-73
2023/10/31 05:31:38;;;;;;;0.10;0.10;;;18.10;96.00;;;;;;4958835;28;20109;-77
2023/10/31 05:34:04;;;;;;;0.10;0.10;;;18.10;96.10;;;;;;4959628;28;20539;-89
2023/10/31 05:36:31;;;;;;;3.95;2.83;;;18.10;96.30;;;;;;4964862;28;20475;-75
2023/10/31 05:38:56;;;;;;;0.10;0.10;;;18.20;96.40;;;;;;4963840;28;20170;-74
2023/10/31 05:41:22;;;;;;;0.20;0.20;;;18.20;96.70;;;;;;4964570;28;20036;-74
2023/10/31 05:43:48;;;;;;;0.10;0.10;;;18.30;96.90;;;;;;4961418;28;20318;-72
2023/10/31 05:46:14;;;;;;;0.10;0.10;;;18.30;97.20;;;;;;4959155;28;20046;-77
2023/10/31 05:48:41;;;;;;;0.10;0.10;;;18.30;97.30;;;;;;4958401;28;20165;-74
2023/10/31 05:51:14;;;;;;;0.10;0.10;;;18.30;97.50;;;;;;4958952;28;20394;-73
2023/10/31 05:53:41;;;;;;;0.10;0.10;;;18.20;98.00;;;;;;4959384;28;20027;-77
2023/10/31 05:56:08;;;;;;;0.10;0.10;;;18.20;98.60;;;;;;4961502;28;20058;-73
2023/10/31 05:58:34;;;;;;;0.13;0.13;;;18.20;98.60;;;;;;4959456;28;20615;-73
2023/10/31 06:01:00;;;;;;;0.13;0.13;;;18.20;99.10;;;;;;4958519;28;20126;-75
2023/10/31 06:03:26;;;;;;;0.35;0.35;;;18.20;99.60;;;;;;4959894;28;20509;-74
2023/10/31 06:05:51;;;;;;;6.03;5.70;;;18.10;99.50;;;;;;4959442;28;20506;-80
2023/10/31 06:08:17;;;;;;;0.10;0.10;;;18.10;99.90;;;;;;4959611;28;20054;-83
2023/10/31 06:10:43;;;;;;;10.02;9.18;;;18.20;99.90;;;;;;4959138;28;20521;-73
2023/10/31 06:13:09;;;;;;;0.10;0.10;;;18.50;99.90;;;;;;4959506;28;20280;-75
2023/10/31 06:15:34;;;;;;;0.10;0.10;;;18.80;99.90;;;;;;4958504;28;20497;-86
2023/10/31 06:18:00;;;;;;;0.13;0.13;;;18.50;99.90;;;;;;4959142;28;20031;-74
2023/10/31 06:20:26;;;;;;;0.20;0.20;;;18.50;99.90;;;;;;4959547;28;20015;-87
2023/10/31 06:22:52;;;;;;;0.10;0.10;;;18.40;99.90;;;;;;4959200;28;20038;-81
2023/10/31 06:25:18;;;;;;;0.10;0.10;;;18.50;99.90;;;;;;4960877;28;20387;-75
2023/10/31 06:27:43;;;;;;;0.10;0.10;;;18.60;99.90;;;;;;4962848;28;20521;-89
2023/10/31 06:30:10;;;;;;;0.10;0.10;;;18.70;99.90;;;;;;4962510;28;20327;-81
2023/10/31 06:32:36;;;;;;;0.28;0.28;;;18.70;99.90;;;;;;4961178;28;20042;-74
2023/10/31 06:35:02;;;;;;;0.10;0.10;;;18.70;99.90;;;;;;4962463;28;20121;-80
2023/10/31 06:37:28;;;;;;;0.10;0.10;;;18.80;99.90;;;;;;4962437;28;20129;-83
2023/10/31 06:39:54;;;;;;;0.20;0.20;;;18.80;99.90;;;;;;4962975;28;20252;-78
2023/10/31 06:42:20;;;;;;;0.10;0.10;;;18.80;99.90;;;;;;4962280;28;20035;-74
2023/10/31 06:44:46;;;;;;;0.10;0.10;;;18.80;99.90;;;;;;4962391;28;20027;-76
2023/10/31 06:47:12;;;;;;;0.10;0.10;;;;;;;;;;4962307;28;20049;-87
2023/10/31 06:49:38;;;;;;;0.10;0.10;;;18.80;99.90;;;;;;4961607;28;20441;-74
2023/10/31 06:52:04;;;;;;;0.10;0.10;;;18.90;99.90;;;;;;4962271;28;20019;-77
2023/10/31 06:54:31;;;;;;;0.65;0.65;;;18.90;99.90;;;;;;4961934;28;20109;-83
2023/10/31 06:56:57;;;;;;;0.10;0.10;;;18.90;99.90;;;;;;4960604;28;20042;-73
2023/10/31 06:59:23;;;;;;;0.30;0.30;;;18.90;99.90;;;;;;4961597;28;20513;-73
2023/10/31 07:01:49;;;;;;;0.10;0.10;;;18.90;99.90;;;;;;4961633;28;20035;-86
2023/10/31 07:04:16;;;;;;;0.10;0.10;;;18.90;99.90;;;;;;4962194;28;20070;-78
2023/10/31 07:06:42;;;;;;;0.15;0.15;;;19.00;99.90;;;;;;4961255;28;20304;-74
2023/10/31 07:09:08;;;;;;;0.45;0.45;;;19.00;99.90;;;;;;4961580;28;20499;-75
2023/10/31 07:11:34;;;;;;;0.20;0.20;;;19.10;99.90;;;;;;4961288;28;20042;-79
2023/10/31 07:14:02;;;;;;;0.10;0.10;;;19.20;99.90;;;;;;4961326;28;20264;-73
2023/10/31 07:16:28;;;;;;;0.10;0.10;;;19.30;99.90;;;;;;4961296;28;20320;-74
2023/10/31 07:18:54;;;;;;;0.10;0.10;;;19.30;99.90;;;;;;4961296;28;20493;-76
2023/10/31 07:21:21;;;;;;;0.20;0.20;;;19.30;99.90;;;;;;4961468;28;20296;-74
2023/10/31 07:23:47;;;;;;;0.20;0.20;;;19.30;99.90;;;;;;4961729;28;20267;-76
2023/10/31 07:26:13;;;;;;;0.10;0.10;;;19.40;99.90;;;;;;4960838;28;20320;-74
2023/10/31 07:28:38;;;;;;;0.20;0.20;;;19.60;99.90;;;;;;4960170;28;20476;-74
2023/10/31 07:31:04;;;;;;;0.20;0.20;;;19.70;99.90;;;;;;4960427;28;20564;-73
2023/10/31 07:33:30;;;;;;;0.25;0.25;;;19.80;99.90;;;;;;4960840;28;20308;-76
2023/10/31 07:35:56;;;;;;;0.10;0.10;;;19.80;99.90;;;;;;4963470;28;20053;-79
2023/10/31 07:38:22;;;;;;;0.32;0.32;;;19.90;99.90;;;;;;4963447;28;20033;-75
2023/10/31 07:40:50;;;;;;;0.10;0.10;;;20.00;99.90;;;;;;4961613;28;20038;-72
2023/10/31 07:43:16;;;;;;;0.10;0.10;;;20.10;99.90;;;;;;4960475;28;20015;-74
2023/10/31 07:45:42;;;;;;;0.20;0.20;;;20.10;99.90;;;;;;4960468;28;20057;-79
2023/10/31 07:48:08;;;;;;;0.10;0.10;;;20.30;99.90;;;;;;4961715;28;20308;-74
2023/10/31 07:50:34;;;;;;;1.13;1.02;;;20.30;99.90;;;;;;4962735;28;20244;-73
2023/10/31 07:53:00;;;;;;;0.10;0.10;;;20.40;99.90;;;;;;4960356;28;20042;-76
2023/10/31 07:55:26;;;;;;;0.10;0.10;;;20.40;99.90;;;;;;4961920;28;20067;-75
2023/10/31 07:57:52;;;;;;;0.10;0.10;;;20.40;99.90;;;;;;4961968;28;20128;-74
2023/10/31 08:00:17;;;;;;;0.13;0.13;;;20.50;99.90;;;;;;4962241;28;20480;-74
2023/10/31 08:02:43;;;;;;;0.10;0.10;;;20.90;99.90;;;;;;4960180;28;20327;-74
2023/10/31 08:05:10;;;;;;;0.10;0.10;;;20.10;99.90;;;;;;4959773;28;20090;-76
2023/10/31 08:07:36;;;;;;;0.10;0.10;;;20.10;99.90;;;;;;4959955;28;20030;-74
2023/10/31 08:10:03;;;;;;;0.10;0.10;;;20.10;99.90;;;;;;4959752;28;20529;-74
2023/10/31 08:12:29;;;;;;;0.10;0.10;;;20.00;99.90;;;;;;4960309;28;20031;-77
2023/10/31 08:14:55;;;;;;;0.10;0.10;;;20.00;99.90;;;;;;4960273;28;20041;-79
2023/10/31 08:17:21;;;;;;;0.10;0.10;;;20.00;99.90;;;;;;4961225;28;20106;-82
2023/10/31 08:19:49;;;;;;;0.10;0.10;;;19.90;99.90;;;;;;4960410;28;20061;-75
2023/10/31 08:22:16;;;;;;;3.65;3.33;;;19.90;99.90;;;;;;4959534;28;20050;-77
2023/10/31 08:24:42;;;;;;;0.10;0.10;;;19.90;99.90;;;;;;4959164;28;20015;-74
2023/10/31 08:27:08;;;;;;;1.45;1.35;;;19.90;99.90;;;;;;4959360;28;20078;-76
2023/10/31 08:29:34;;;;;;;2.58;2.47;;;;;;;;;;4959284;28;20026;-75
2023/10/31 08:31:59;;;;;;;0.10;0.10;;;20.00;99.90;;;;;;4959013;28;20126;-75
2023/10/31 08:34:25;;;;;;;0.10;0.10;;;20.50;99.90;;;;;;4989563;28;20105;-75
2023/10/31 08:36:52;;;;;;;0.63;0.63;;;20.00;99.90;;;;;;4958761;28;20039;-75
2023/10/31 08:39:18;;;;;;;0.10;0.10;;;20.10;99.90;;;;;;4958884;28;20030;-76
2023/10/31 08:41:57;;;;;;;0.20;0.20;;;20.10;99.90;;;;;;4958766;28;20414;-74
2023/10/31 08:44:24;;;;;;;62.63;2.40;;;20.20;99.90;;;;;;4958617;28;20253;-73
2023/10/31 08:46:50;;;;;;;0.10;0.10;;;20.30;99.90;;;;;;4958246;28;20023;-73
2023/10/31 08:49:17;;;;;;;0.10;0.10;;;20.30;99.90;;;;;;4958272;28;20055;-74
2023/10/31 08:51:43;;;;;;;0.10;0.10;;;20.40;99.90;;;;;;4958291;28;20031;-74
2023/10/31 08:54:09;;;;;;;0.10;0.10;;;20.50;99.90;;;;;;4958251;28;20518;-78
2023/10/31 08:56:35;;;;;;;0.10;0.10;;;20.40;99.90;;;;;;4958648;28;20374;-81
2023/10/31 08:59:01;;;;;;;0.63;0.63;;;20.40;99.90;;;;;;4958144;28;20031;-75
2023/10/31 09:01:30;;;;;;;12.27;11.48;;;20.40;99.90;;;;;;4958324;28;20023;-76
2023/10/31 09:03:58;;;;;;;0.10;0.10;;;20.20;99.90;;;;;;4958066;28;20209;-76
2023/10/31 09:06:24;;;;;;;0.10;0.10;;;17.20;99.90;;;;;;4958247;28;20045;-79
2023/10/31 09:08:50;;;;;;;0.20;0.20;;;20.10;99.90;;;;;;4958031;28;20035;-76
2023/10/31 09:11:16;;;;;;;0.10;0.10;;;19.90;99.90;;;;;;4958132;28;20027;-76
2023/10/31 09:13:42;;;;;;;0.10;0.10;;;19.70;99.90;;;;;;4958225;28;20452;-75
2023/10/31 09:16:08;;;;;;;0.10;0.10;;;19.60;99.90;;;;;;4958104;28;20061;-75
2023/10/31 09:18:34;;;;;;;0.10;0.10;;;19.70;99.90;;;;;;4957946;28;20030;-75
2023/10/31 09:21:00;;;;;;;2.00;1.55;;;19.60;99.90;;;;;;4958108;28;20251;-74
2023/10/31 09:23:26;;;;;;;0.10;0.10;;;19.50;99.90;;;;;;4957984;28;20023;-75
2023/10/31 09:25:52;;;;;;;0.10;0.10;;;19.50;99.90;;;;;;4958148;28;20525;-74
2023/10/31 09:28:18;;;;;;;0.10;0.10;;;19.60;99.90;;;;;;4958216;28;20106;-77
2023/10/31 09:30:43;;;;;;;0.10;0.10;;;19.50;99.90;;;;;;4958087;28;20130;-74
2023/10/31 09:33:09;;;;;;;1.08;0.52;;;19.60;99.90;;;;;;4958140;28;20081;-74
2023/10/31 09:35:35;;;;;;;0.10;0.10;;;19.60;99.90;;;;;;4957834;28;20494;-77
2023/10/31 09:38:01;;;;;;;0.10;0.10;;;19.60;99.90;;;;;;4957964;28;20498;-80
2023/10/31 09:40:26;;;;;;;0.10;0.10;;;19.50;99.90;;;;;;4957981;28;20019;-78
2023/10/31 09:42:52;;;;;;;1.48;1.38;;;19.50;99.90;;;;;;4957804;28;20035;-75
2023/10/31 09:45:18;;;;;;;0.10;0.10;;;19.60;99.90;;;;;;4957869;28;20081;-75
2023/10/31 09:47:44;;;;;;;0.10;0.10;;;19.80;99.90;;;;;;4957731;28;20487;-76
2023/10/31 09:50:11;;;;;;;0.10;0.10;;;19.80;99.90;;;;;;4957567;28;20043;-75
2023/10/31 09:52:38;;;;;;;0.20;0.20;;;19.80;99.90;;;;;;4958216;28;20029;-74
2023/10/31 09:55:05;;;;;;;0.35;0.35;;;19.80;99.90;;;;;;4957661;28;20055;-74
2023/10/31 09:57:31;;;;;;;0.63;0.63;;;20.00;99.90;;;;;;4958090;28;20023;-75
2023/10/31 09:59:57;;;;;;;0.10;0.10;;;19.90;99.90;;;;;;4959492;28;20526;-82
2023/10/31 10:02:23;;;;;;;0.10;0.10;;;19.90;99.90;;;;;;4961373;28;20038;-76
2023/10/31 10:04:49;;;;;;;0.10;0.10;;;19.90;99.90;;;;;;4961590;28;20083;-75
2023/10/31 10:07:19;;;;;;;0.10;0.10;;;20.00;99.90;;;;;;4961624;28;20031;-76
2023/10/31 10:09:46;;;;;;;0.10;0.10;;;20.10;99.90;;;;;;4961736;28;20022;-74
2023/10/31 10:12:13;;;;;;;0.10;0.10;;;20.20;99.90;;;;;;4961455;28;20304;-77
2023/10/31 10:14:40;;;;;;;0.93;0.93;;;20.20;99.90;;;;;;4961391;28;20023;-78
2023/10/31 10:17:24;;;;;;;0.20;0.20;;;20.30;99.90;;;;;;4961339;28;20037;-75
2023/10/31 10:20:10;;;;;;;0.50;0.50;;;20.30;99.90;;;;;;4961121;28;20078;-75
2023/10/31 10:22:45;;;;;;;0.10;0.10;;;20.40;99.90;;;;;;4961266;28;20034;-75
2023/10/31 10:25:21;;;;;;;0.10;0.10;;;20.50;99.90;;;;;;4961316;28;20457;-76
2023/10/31 10:27:47;;;;;;;0.17;0.17;;;20.50;99.90;;;;;;4961028;28;20089;-75
2023/10/31 10:30:14;;;;;;;1.52;1.45;;;20.60;99.90;;;;;;4961110;28;20027;-76
2023/10/31 10:32:40;;;;;;;0.10;0.10;;;20.60;99.90;;;;;;4961057;28;20206;-74
2023/10/31 10:35:06;;;;;;;0.10;0.10;;;20.60;99.90;;;;;;4961320;28;20588;-75
2023/10/31 10:37:36;;;;;;;0.35;0.35;;;20.70;99.90;;;;;;4959641;28;20035;-75
2023/10/31 10:40:05;;;;;;;0.10;0.10;;;21.10;99.90;;;;;;4960554;28;20034;-74
2023/10/31 10:42:33;;;;;;;0.10;0.10;;;20.80;99.90;;;;;;4961407;28;20050;-74
2023/10/31 10:45:03;;;;;;;0.10;0.10;;;20.80;99.90;;;;;;4961282;28;20098;-75
2023/10/31 10:47:33;;;;;;;0.10;0.10;;;20.80;99.90;;;;;;4961076;28;20339;-74
2023/10/31 10:50:01;;;;;;;0.10;0.10;;;20.80;99.90;;;;;;4961060;28;20050;-74
2023/10/31 10:52:38;;;;;;;0.10;0.10;;;20.80;99.90;;;;;;4962511;28;20055;-75
2023/10/31 10:55:12;;;;;;;0.10;0.10;;;20.50;99.90;;;;;;4961215;28;20031;-78
2023/10/31 10:58:08;;;;;;;0.10;0.10;;;20.60;99.90;;;;;;4961486;28;20022;-75
2023/10/31 11:00:34;;;;;;;4.28;1.38;;;20.50;99.90;;;;;;4961030;28;20094;-80
2023/10/31 11:03:01;;;;;;;0.25;0.25;;;20.60;99.90;;;;;;4960664;28;20320;-74
2023/10/31 11:05:27;;;;;;;0.10;0.10;;;20.60;99.90;;;;;;4960853;28;20035;-74
2023/10/31 11:07:55;;;;;;;3.88;3.35;;;20.50;99.90;;;;;;4960529;28;20549;-81
2023/10/31 11:10:21;;;;;;;0.10;0.10;;;20.40;99.90;;;;;;4960069;28;20031;-75
2023/10/31 11:12:47;;;;;;;0.10;0.10;;;20.50;99.90;;;;;;4960632;28;20253;-75
2023/10/31 11:15:16;;;;;;;1.13;0.60;;;20.50;99.90;;;;;;4960531;28;20057;-80
2023/10/31 11:17:45;;;;;;;0.38;0.35;;;20.50;99.90;;;;;;4960646;28;20733;-74
2023/10/31 11:20:14;;;;;;;0.10;0.10;;;20.50;99.90;;;;;;4960508;28;20019;-74
2023/10/31 11:22:42;;;;;;;0.10;0.10;;;20.80;99.90;;;;;;4960528;28;20764;-74
2023/10/31 11:25:20;;;;;;;0.10;0.10;;;20.80;99.90;;;;;;4961095;28;20316;-74
2023/10/31 11:27:46;;;;;;;0.10;0.10;;;21.00;99.90;;;;;;4961125;28;20220;-74
2023/10/31 11:30:25;;;;;;;0.10;0.10;;;21.10;99.90;;;;;;4960613;28;20138;-74
2023/10/31 11:32:54;;;;;;;0.20;0.20;;;21.10;99.90;;;;;;4961555;28;20301;-74
2023/10/31 11:35:23;;;;;;;0.10;0.10;;;21.40;99.90;;;;;;4960892;28;20743;-75
2023/10/31 11:37:52;;;;;;;0.10;0.10;;;21.60;99.90;;;;;;4960613;28;20242;-74
2023/10/31 11:40:22;;;;;;;0.47;0.47;;;21.70;99.90;;;;;;4960419;28;20529;-75
2023/10/31 11:42:54;;;;;;;0.32;0.32;;;21.80;99.90;;;;;;4960522;28;20255;-74
2023/10/31 11:45:42;;;;;;;1.08;0.73;;;21.90;99.90;;;;;;4960221;28;20707;-75
2023/10/31 11:48:09;;;;;;;0.85;0.73;;;21.80;99.90;;;;;;4958517;28;20019;-74
2023/10/31 11:50:37;;;;;;;0.10;0.10;;;21.90;99.90;;;;;;4960246;28;20018;-74
2023/10/31 11:53:13;;;;;;;0.35;0.35;;;21.80;99.90;;;;;;4960263;28;20220;-74
2023/10/31 11:55:42;;;;;;;0.10;0.10;;;21.80;99.90;;;;;;4959981;28;20089;-75
2023/10/31 11:58:25;;;;;;;0.10;0.10;;;21.90;99.90;;;;;;4959919;28;20030;-74
2023/10/31 12:00:52;;;;;;;;;;;22.00;99.90;;;;;;4960135;28;20026;-75
2023/10/31 12:03:18;;;;;;;0.10;0.10;;;22.00;99.90;;;;;;4958071;28;20012;-75
2023/10/31 12:06:00;;;;;;;0.10;0.10;;;21.90;99.90;;;;;;4959775;28;20093;-74
2023/10/31 12:08:26;;;;;;;0.17;0.17;;;21.90;99.90;;;;;;4959687;28;20332;-74
2023/10/31 12:10:52;;;;;;;0.10;0.10;;;22.00;99.90;;;;;;4959746;28;20311;-75
2023/10/31 12:13:18;;;;;;;0.10;0.10;;;21.90;99.90;;;;;;4959579;28;20489;-75
2023/10/31 12:15:53;;;;;;;0.20;0.20;;;22.00;99.90;;;;;;4959392;28;20569;-75
2023/10/31 12:18:19;;;;;;;0.10;0.10;;;21.60;99.90;;;;;;4959551;28;20406;-74
2023/10/31 12:20:51;;;;;;;0.10;0.10;;;21.60;99.90;;;;;;4959162;28;20078;-73
2023/10/31 12:23:18;;;;;;;0.35;0.35;;;21.60;99.90;;;;;;4958657;28;20043;-75
2023/10/31 12:25:48;;;;;;;0.10;0.10;;;21.50;99.90;;;;;;4959422;28;20023;-74
2023/10/31 12:28:19;;;;;;;0.10;0.10;;;21.40;99.90;;;;;;4959494;28;20042;-75
2023/10/31 12:30:47;;;;;;;0.10;0.10;;;21.40;99.90;;;;;;4959722;28;20303;-73
2023/10/31 12:33:13;;;;;;;0.20;0.20;;;21.40;99.90;;;;;;4959212;28;20022;-74
2023/10/31 12:35:39;;;;;;;0.10;0.10;;;21.50;99.90;;;;;;4959249;28;20536;-74
2023/10/31 12:38:05;;;;;;;0.10;0.10;;;21.50;99.90;;;;;;4959021;28;20034;-73
2023/10/31 12:40:32;;;;;;;0.10;0.10;;;21.60;99.90;;;;;;4959004;28;20190;-74
2023/10/31 12:43:00;;;;;;;1.48;0.63;;;21.60;99.90;;;;;;4959087;28;20118;-74
2023/10/31 12:45:26;;;;;;;0.30;0.30;;;21.70;99.90;;;;;;4959132;28;20297;-78